createdAt,value
2016-09-23T00:00:19.795Z,13.29
2016-09-23T00:01:00.335Z,13.29
2016-09-23T00:01:40.877Z,13.29
2016-09-23T00:02:21.422Z,13.33
2016-09-23T00:03:01.961Z,13.29
2016-09-23T00:03:42.505Z,13.32
2016-09-23T00:04:23.062Z,13.25
2016-09-23T00:05:03.607Z,13.26
2016-09-23T00:05:44.148Z,13.25
2016-09-23T00:06:24.690Z,13.23
2016-09-23T00:07:05.220Z,13.26
2016-09-23T00:07:45.764Z,13.28
2016-09-23T00:08:26.302Z,13.28
2016-09-23T00:09:06.846Z,13.26
2016-09-23T00:09:47.389Z,13.3
2016-09-23T00:10:27.932Z,13.26
2016-09-23T00:11:08.473Z,13.2
2016-09-23T00:11:49.019Z,13.25
2016-09-23T00:12:29.558Z,13.2
2016-09-23T00:13:10.101Z,13.25
2016-09-23T00:13:50.636Z,13.23
2016-09-23T00:14:31.176Z,13.29
2016-09-23T00:15:11.720Z,13.19
2016-09-23T00:15:52.253Z,13.2
2016-09-23T00:16:32.799Z,13.22
2016-09-23T00:17:13.343Z,13.23
2016-09-23T00:17:53.886Z,13.15
2016-09-23T00:18:34.431Z,13.26
2016-09-23T00:19:14.975Z,13.22
2016-09-23T00:19:55.517Z,13.26
2016-09-23T00:20:36.057Z,13.19
2016-09-23T00:21:16.600Z,13.17
2016-09-23T00:21:57.143Z,13.2
2016-09-23T00:22:37.677Z,13.22
2016-09-23T00:23:18.219Z,13.15
2016-09-23T00:23:58.758Z,13.19
2016-09-23T00:24:39.303Z,13.14
2016-09-23T00:25:19.845Z,13.14
2016-09-23T00:26:00.390Z,13.2
2016-09-23T00:26:40.927Z,13.19
2016-09-23T00:27:21.473Z,13.12
2016-09-23T00:28:02.018Z,13.1
2016-09-23T00:28:42.558Z,13.11
2016-09-23T00:29:23.102Z,13.25
2016-09-23T00:30:03.640Z,13.2
2016-09-23T00:30:44.178Z,13.11
2016-09-23T00:31:24.779Z,13.14
2016-09-23T00:32:05.324Z,13.08
2016-09-23T00:32:45.863Z,13.08
2016-09-23T00:33:26.407Z,13.11
2016-09-23T00:34:06.943Z,13.03
2016-09-23T00:34:47.485Z,13.08
2016-09-23T00:35:28.022Z,13.03
2016-09-23T00:36:08.569Z,13.04
2016-09-23T00:36:49.114Z,13.08
2016-09-23T00:37:29.656Z,13.08
2016-09-23T00:38:10.192Z,13.08
2016-09-23T00:38:50.736Z,13.05
2016-09-23T00:39:31.279Z,12.96
2016-09-23T00:40:11.819Z,12.92
2016-09-23T00:40:52.358Z,12.93
2016-09-23T00:41:32.899Z,12.92
2016-09-23T00:42:13.444Z,12.96
2016-09-23T00:42:53.981Z,12.93
2016-09-23T00:43:34.528Z,12.95
2016-09-23T00:44:15.064Z,12.9
2016-09-23T00:44:55.615Z,12.96
2016-09-23T00:45:36.160Z,12.86
2016-09-23T00:46:16.704Z,12.87
2016-09-23T00:46:57.243Z,12.93
2016-09-23T00:47:37.793Z,12.87
2016-09-23T00:48:18.336Z,12.78
2016-09-23T00:48:58.874Z,12.93
2016-09-23T00:49:39.419Z,12.85
2016-09-23T00:50:19.955Z,12.89
2016-09-23T00:51:00.496Z,12.82
2016-09-23T00:51:41.035Z,12.82
2016-09-23T00:52:21.572Z,12.83
2016-09-23T00:53:02.116Z,12.82
2016-09-23T00:53:42.658Z,12.82
2016-09-23T00:54:23.205Z,12.87
2016-09-23T00:55:03.750Z,12.86
2016-09-23T00:55:44.325Z,12.78
2016-09-23T00:56:24.874Z,12.82
2016-09-23T00:57:05.415Z,12.79
2016-09-23T00:57:45.957Z,12.83
2016-09-23T00:58:26.500Z,12.86
2016-09-23T00:59:07.038Z,12.85
2016-09-23T00:59:47.582Z,12.68
2016-09-23T01:00:28.118Z,12.77
2016-09-23T01:01:08.664Z,12.82
2016-09-23T01:01:49.237Z,12.78
2016-09-23T01:02:29.779Z,12.78
2016-09-23T01:03:10.323Z,12.79
2016-09-23T01:03:50.866Z,12.82
2016-09-23T01:04:31.407Z,12.79
2016-09-23T01:05:11.953Z,12.85
2016-09-23T01:05:52.492Z,12.77
2016-09-23T01:06:33.032Z,12.65
2016-09-23T01:07:13.575Z,12.82
2016-09-23T01:07:54.114Z,12.67
2016-09-23T01:08:34.650Z,12.71
2016-09-23T01:09:15.193Z,12.7
2016-09-23T01:09:55.743Z,12.67
2016-09-23T01:10:36.278Z,12.65
2016-09-23T01:11:16.822Z,12.65
2016-09-23T01:11:57.358Z,12.77
2016-09-23T01:12:37.907Z,12.68
2016-09-23T01:13:18.451Z,12.77
2016-09-23T01:13:58.997Z,12.68
2016-09-23T01:14:39.547Z,12.7
2016-09-23T01:15:20.095Z,12.72
2016-09-23T01:16:00.639Z,12.7
2016-09-23T01:16:41.188Z,12.7
2016-09-23T01:17:21.723Z,12.71
2016-09-23T01:18:02.269Z,12.68
2016-09-23T01:18:42.811Z,12.7
2016-09-23T01:19:23.353Z,12.64
2016-09-23T01:20:03.895Z,12.67
2016-09-23T01:20:44.435Z,12.67
2016-09-23T01:21:24.980Z,12.6
2016-09-23T01:22:05.489Z,12.68
2016-09-23T01:22:46.023Z,12.56
2016-09-23T01:23:26.560Z,12.6
2016-09-23T01:24:07.105Z,12.59
2016-09-23T01:24:47.641Z,12.62
2016-09-23T01:25:28.170Z,12.65
2016-09-23T01:26:08.725Z,12.56
2016-09-23T01:26:49.261Z,12.59
2016-09-23T01:27:29.805Z,12.56
2016-09-23T01:28:10.346Z,12.62
2016-09-23T01:28:50.883Z,12.57
2016-09-23T01:29:31.419Z,12.57
2016-09-23T01:30:11.961Z,12.52
2016-09-23T01:30:52.501Z,12.59
2016-09-23T01:31:33.041Z,12.53
2016-09-23T01:32:13.577Z,12.53
2016-09-23T01:32:54.128Z,12.52
2016-09-23T01:33:34.657Z,12.47
2016-09-23T01:34:15.206Z,12.45
2016-09-23T01:34:55.747Z,12.42
2016-09-23T01:35:36.287Z,12.47
2016-09-23T01:36:16.830Z,12.42
2016-09-23T01:36:57.371Z,12.37
2016-09-23T01:37:37.909Z,12.35
2016-09-23T01:38:18.438Z,12.32
2016-09-23T01:38:58.980Z,12.34
2016-09-23T01:39:39.519Z,12.35
2016-09-23T01:40:20.064Z,12.39
2016-09-23T01:41:00.618Z,12.31
2016-09-23T01:41:41.162Z,12.31
2016-09-23T01:42:21.703Z,12.31
2016-09-23T01:43:02.244Z,12.34
2016-09-23T01:43:42.787Z,12.32
2016-09-23T01:44:23.329Z,12.41
2016-09-23T01:45:03.874Z,12.31
2016-09-23T01:45:44.407Z,12.31
2016-09-23T01:46:24.950Z,12.29
2016-09-23T01:47:05.489Z,12.31
2016-09-23T01:47:46.025Z,12.32
2016-09-23T01:48:26.570Z,12.37
2016-09-23T01:49:07.112Z,12.32
2016-09-23T01:49:47.653Z,12.29
2016-09-23T01:50:28.201Z,12.32
2016-09-23T01:51:08.756Z,12.39
2016-09-23T01:51:49.299Z,12.31
2016-09-23T01:52:29.832Z,12.29
2016-09-23T01:53:10.367Z,12.35
2016-09-23T01:53:50.911Z,12.21
2016-09-23T01:54:31.447Z,12.38
2016-09-23T01:55:11.986Z,12.29
2016-09-23T01:55:52.530Z,12.21
2016-09-23T01:56:33.077Z,12.28
2016-09-23T01:57:13.622Z,12.35
2016-09-23T01:57:54.164Z,12.27
2016-09-23T01:58:34.698Z,12.27
2016-09-23T01:59:15.271Z,12.32
2016-09-23T01:59:55.812Z,12.37
2016-09-23T02:00:36.351Z,12.32
2016-09-23T02:01:16.894Z,12.29
2016-09-23T02:01:57.426Z,12.31
2016-09-23T02:02:37.964Z,12.35
2016-09-23T02:03:18.508Z,12.32
2016-09-23T02:03:59.054Z,12.37
2016-09-23T02:04:39.586Z,12.34
2016-09-23T02:05:20.131Z,12.29
2016-09-23T02:06:00.657Z,12.32
2016-09-23T02:06:41.187Z,12.29
2016-09-23T02:07:21.734Z,12.31
2016-09-23T02:08:02.280Z,12.31
2016-09-23T02:08:42.808Z,12.38
2016-09-23T02:09:23.337Z,12.35
2016-09-23T02:10:03.882Z,12.35
2016-09-23T02:10:44.421Z,12.34
2016-09-23T02:11:24.968Z,12.35
2016-09-23T02:12:05.494Z,12.37
2016-09-23T02:12:46.044Z,12.35
2016-09-23T02:13:26.586Z,12.35
2016-09-23T02:14:07.120Z,12.39
2016-09-23T02:14:47.666Z,12.37
2016-09-23T02:15:28.205Z,12.37
2016-09-23T02:16:08.738Z,12.39
2016-09-23T02:16:49.278Z,12.42
2016-09-23T02:17:29.825Z,12.32
2016-09-23T02:18:10.371Z,12.39
2016-09-23T02:18:50.895Z,12.39
2016-09-23T02:19:31.445Z,12.46
2016-09-23T02:20:11.970Z,12.35
2016-09-23T02:20:52.513Z,12.41
2016-09-23T02:21:33.059Z,12.41
2016-09-23T02:22:13.599Z,12.46
2016-09-23T02:22:54.141Z,12.46
2016-09-23T02:23:34.687Z,12.45
2016-09-23T02:24:15.231Z,12.45
2016-09-23T02:24:55.768Z,12.49
2016-09-23T02:25:36.295Z,12.45
2016-09-23T02:26:16.837Z,12.39
2016-09-23T02:26:57.375Z,12.39
2016-09-23T02:27:37.925Z,12.5
2016-09-23T02:28:18.460Z,12.45
2016-09-23T02:28:59.007Z,12.47
2016-09-23T02:29:39.542Z,12.42
2016-09-23T02:30:20.088Z,12.47
2016-09-23T02:31:00.636Z,12.42
2016-09-23T02:31:41.174Z,12.49
2016-09-23T02:32:21.718Z,12.39
2016-09-23T02:33:02.255Z,12.45
2016-09-23T02:33:42.816Z,12.45
2016-09-23T02:34:23.338Z,12.47
2016-09-23T02:35:03.889Z,12.45
2016-09-23T02:35:44.433Z,12.42
2016-09-23T02:36:24.977Z,12.47
2016-09-23T02:37:05.517Z,12.47
2016-09-23T02:37:46.063Z,12.45
2016-09-23T02:38:26.607Z,12.46
2016-09-23T02:39:07.148Z,12.45
2016-09-23T02:39:47.676Z,12.42
2016-09-23T02:40:28.239Z,12.45
2016-09-23T02:41:08.768Z,12.45
2016-09-23T02:41:49.309Z,12.42
2016-09-23T02:42:29.853Z,12.45
2016-09-23T02:43:10.393Z,12.46
2016-09-23T02:43:50.939Z,12.42
2016-09-23T02:44:31.479Z,12.47
2016-09-23T02:45:12.031Z,12.41
2016-09-23T02:45:52.577Z,12.45
2016-09-23T02:46:33.124Z,12.47
2016-09-23T02:47:13.675Z,12.38
2016-09-23T02:47:54.216Z,12.42
2016-09-23T02:48:34.759Z,12.41
2016-09-23T02:49:15.302Z,12.38
2016-09-23T02:49:55.836Z,12.45
2016-09-23T02:50:36.372Z,12.37
2016-09-23T02:51:16.914Z,12.38
2016-09-23T02:51:57.447Z,12.35
2016-09-23T02:52:37.989Z,12.35
2016-09-23T02:53:18.539Z,12.34
2016-09-23T02:53:59.086Z,12.34
2016-09-23T02:54:39.630Z,12.34
2016-09-23T02:55:20.180Z,12.37
2016-09-23T02:56:00.724Z,12.28
2016-09-23T02:56:41.270Z,12.39
2016-09-23T02:57:21.814Z,12.38
2016-09-23T02:58:02.361Z,12.34
2016-09-23T02:58:42.903Z,12.21
2016-09-23T02:59:23.443Z,12.28
2016-09-23T03:00:03.979Z,12.21
2016-09-23T03:00:44.518Z,12.27
2016-09-23T03:01:25.059Z,12.23
2016-09-23T03:02:05.599Z,12.24
2016-09-23T03:02:46.144Z,12.16
2016-09-23T03:03:26.690Z,12.23
2016-09-23T03:04:07.227Z,12.27
2016-09-23T03:04:47.773Z,12.14
2016-09-23T03:05:28.316Z,12.19
2016-09-23T03:06:08.868Z,12.24
2016-09-23T03:06:49.413Z,12.23
2016-09-23T03:07:29.946Z,12.14
2016-09-23T03:08:10.485Z,12.13
2016-09-23T03:08:51.023Z,12.16
2016-09-23T03:09:31.586Z,12.13
2016-09-23T03:10:12.105Z,12.14
2016-09-23T03:10:52.656Z,12.19
2016-09-23T03:11:33.203Z,12.17
2016-09-23T03:12:13.754Z,12.19
2016-09-23T03:12:54.300Z,12.16
2016-09-23T03:13:34.849Z,12.16
2016-09-23T03:14:15.396Z,12.14
2016-09-23T03:14:55.934Z,12.14
2016-09-23T03:15:36.478Z,12.05
2016-09-23T03:16:17.022Z,12.05
2016-09-23T03:16:57.560Z,12.04
2016-09-23T03:17:38.097Z,11.99
2016-09-23T03:18:18.644Z,12.09
2016-09-23T03:18:59.181Z,12.1
2016-09-23T03:19:39.724Z,12.07
2016-09-23T03:20:20.250Z,12.05
2016-09-23T03:21:00.794Z,12.04
2016-09-23T03:21:41.328Z,12.09
2016-09-23T03:22:21.873Z,12.01
2016-09-23T03:23:02.416Z,12.02
2016-09-23T03:23:42.949Z,11.99
2016-09-23T03:24:23.497Z,12.13
2016-09-23T03:25:04.039Z,12.07
2016-09-23T03:25:44.584Z,12.07
2016-09-23T03:26:25.123Z,12.05
2016-09-23T03:27:05.667Z,12.1
2016-09-23T03:27:46.238Z,12.1
2016-09-23T03:28:26.783Z,11.99
2016-09-23T03:29:07.318Z,12.09
2016-09-23T03:29:47.854Z,11.98
2016-09-23T03:30:28.384Z,12.09
2016-09-23T03:31:08.958Z,12.02
2016-09-23T03:31:49.444Z,12.01
2016-09-23T03:32:29.988Z,11.99
2016-09-23T03:33:10.531Z,12.13
2016-09-23T03:33:51.073Z,12.05
2016-09-23T03:34:31.624Z,12.1
2016-09-23T03:35:12.174Z,12.1
2016-09-23T03:35:52.723Z,12.1
2016-09-23T03:36:33.258Z,12.07
2016-09-23T03:37:13.803Z,12.12
2016-09-23T03:37:54.345Z,11.99
2016-09-23T03:38:34.865Z,12.09
2016-09-23T03:39:15.413Z,12.09
2016-09-23T03:39:55.957Z,12.07
2016-09-23T03:40:36.520Z,12.07
2016-09-23T03:41:17.058Z,12.01
2016-09-23T03:41:57.598Z,12.09
2016-09-23T03:42:38.133Z,12.09
2016-09-23T03:43:18.686Z,12.05
2016-09-23T03:43:59.235Z,12.02
2016-09-23T03:44:39.782Z,12.09
2016-09-23T03:45:20.329Z,12.05
2016-09-23T03:46:00.870Z,12.04
2016-09-23T03:46:41.408Z,12.04
2016-09-23T03:47:21.958Z,12.01
2016-09-23T03:48:02.506Z,11.96
2016-09-23T03:48:43.043Z,11.9
2016-09-23T03:49:23.587Z,11.95
2016-09-23T03:50:04.129Z,11.96
2016-09-23T03:50:44.675Z,11.95
2016-09-23T03:51:25.210Z,11.9
2016-09-23T03:52:05.756Z,11.94
2016-09-23T03:52:46.300Z,11.88
2016-09-23T03:53:26.900Z,11.91
2016-09-23T03:54:07.436Z,11.94
2016-09-23T03:54:47.982Z,11.91
2016-09-23T03:55:28.523Z,11.95
2016-09-23T03:56:09.066Z,11.88
2016-09-23T03:56:49.613Z,11.9
2016-09-23T03:57:30.153Z,11.94
2016-09-23T03:58:10.699Z,11.88
2016-09-23T03:58:51.244Z,11.88
2016-09-23T03:59:31.874Z,11.9
2016-09-23T04:00:12.370Z,11.88
2016-09-23T04:00:52.930Z,11.95
2016-09-23T04:01:33.488Z,11.9
2016-09-23T04:02:14.020Z,11.9
2016-09-23T04:02:54.565Z,11.86
2016-09-23T04:03:35.107Z,11.86
2016-09-23T04:04:15.658Z,11.82
2016-09-23T04:04:56.206Z,11.9
2016-09-23T04:05:36.746Z,11.95
2016-09-23T04:06:17.287Z,11.85
2016-09-23T04:06:57.834Z,11.91
2016-09-23T04:07:38.430Z,11.75
2016-09-23T04:08:18.978Z,11.88
2016-09-23T04:08:59.521Z,11.86
2016-09-23T04:09:40.068Z,11.83
2016-09-23T04:10:20.606Z,11.86
2016-09-23T04:11:01.150Z,11.86
2016-09-23T04:11:41.730Z,11.8
2016-09-23T04:12:22.275Z,11.8
2016-09-23T04:13:02.818Z,11.78
2016-09-23T04:13:43.368Z,11.83
2016-09-23T04:14:23.907Z,11.75
2016-09-23T04:15:04.449Z,11.82
2016-09-23T04:15:44.988Z,11.79
2016-09-23T04:16:25.535Z,11.8
2016-09-23T04:17:06.077Z,11.8
2016-09-23T04:17:46.613Z,11.79
2016-09-23T04:18:27.159Z,11.76
2016-09-23T04:19:07.692Z,11.79
2016-09-23T04:19:48.240Z,11.85
2016-09-23T04:20:28.804Z,11.75
2016-09-23T04:21:09.326Z,11.8
2016-09-23T04:21:49.870Z,11.75
2016-09-23T04:22:30.411Z,11.75
2016-09-23T04:23:10.959Z,11.82
2016-09-23T04:23:51.505Z,11.76
2016-09-23T04:24:32.045Z,11.75
2016-09-23T04:25:12.587Z,11.82
2016-09-23T04:25:53.131Z,11.76
2016-09-23T04:26:33.669Z,11.73
2016-09-23T04:27:14.212Z,11.73
2016-09-23T04:27:54.751Z,11.73
2016-09-23T04:28:35.298Z,11.83
2016-09-23T04:29:15.851Z,11.79
2016-09-23T04:29:56.385Z,11.78
2016-09-23T04:30:36.931Z,11.75
2016-09-23T04:31:17.474Z,11.65
2016-09-23T04:31:58.017Z,11.76
2016-09-23T04:32:38.562Z,11.7
2016-09-23T04:33:19.108Z,11.7
2016-09-23T04:33:59.646Z,11.69
2016-09-23T04:34:40.192Z,11.73
2016-09-23T04:35:20.728Z,11.65
2016-09-23T04:36:01.273Z,11.69
2016-09-23T04:36:41.805Z,11.78
2016-09-23T04:37:22.350Z,11.78
2016-09-23T04:38:02.893Z,11.75
2016-09-23T04:38:43.449Z,11.7
2016-09-23T04:39:23.989Z,11.7
2016-09-23T04:40:04.528Z,11.7
2016-09-23T04:40:45.070Z,11.69
2016-09-23T04:41:25.604Z,11.7
2016-09-23T04:42:06.140Z,11.73
2016-09-23T04:42:46.683Z,11.73
2016-09-23T04:43:27.229Z,11.73
2016-09-23T04:44:07.764Z,11.73
2016-09-23T04:44:48.315Z,11.65
2016-09-23T04:45:28.850Z,11.73
2016-09-23T04:46:09.397Z,11.72
2016-09-23T04:46:49.940Z,11.79
2016-09-23T04:47:30.488Z,11.76
2016-09-23T04:48:11.030Z,11.72
2016-09-23T04:48:51.576Z,11.75
2016-09-23T04:49:32.124Z,11.73
2016-09-23T04:50:12.725Z,11.69
2016-09-23T04:50:53.261Z,11.7
2016-09-23T04:51:33.808Z,11.73
2016-09-23T04:52:14.353Z,11.73
2016-09-23T04:52:54.894Z,11.69
2016-09-23T04:53:35.435Z,11.7
2016-09-23T04:54:15.979Z,11.73
2016-09-23T04:54:56.522Z,11.65
2016-09-23T04:55:37.062Z,11.72
2016-09-23T04:56:17.603Z,11.72
2016-09-23T04:56:58.151Z,11.7
2016-09-23T04:57:38.695Z,11.7
2016-09-23T04:58:19.235Z,11.73
2016-09-23T04:58:59.779Z,11.75
2016-09-23T04:59:40.319Z,11.73
2016-09-23T05:00:20.864Z,11.73
2016-09-23T05:01:01.411Z,11.76
2016-09-23T05:01:41.954Z,11.73
2016-09-23T05:02:22.493Z,11.72
2016-09-23T05:03:03.044Z,11.69
2016-09-23T05:03:43.592Z,11.64
2016-09-23T05:04:24.128Z,11.67
2016-09-23T05:05:04.665Z,11.64
2016-09-23T05:05:45.210Z,11.7
2016-09-23T05:06:25.750Z,11.75
2016-09-23T05:07:06.293Z,11.75
2016-09-23T05:07:46.822Z,11.73
2016-09-23T05:08:27.370Z,11.79
2016-09-23T05:09:07.896Z,11.67
2016-09-23T05:09:48.418Z,11.75
2016-09-23T05:10:28.959Z,11.73
2016-09-23T05:11:09.498Z,11.7
2016-09-23T05:11:50.046Z,11.8
2016-09-23T05:12:30.581Z,11.75
2016-09-23T05:13:11.114Z,11.7
2016-09-23T05:13:51.654Z,11.73
2016-09-23T05:14:32.208Z,11.73
2016-09-23T05:15:12.754Z,11.73
2016-09-23T05:15:53.282Z,11.69
2016-09-23T05:16:33.826Z,11.76
2016-09-23T05:17:14.352Z,11.69
2016-09-23T05:17:54.907Z,11.72
2016-09-23T05:18:35.438Z,11.73
2016-09-23T05:19:15.980Z,11.72
2016-09-23T05:19:56.511Z,11.67
2016-09-23T05:20:37.041Z,11.69
2016-09-23T05:21:17.574Z,11.7
2016-09-23T05:21:58.114Z,11.73
2016-09-23T05:22:38.651Z,11.67
2016-09-23T05:23:19.173Z,11.72
2016-09-23T05:23:59.704Z,11.72
2016-09-23T05:24:40.248Z,11.75
2016-09-23T05:25:20.772Z,11.78
2016-09-23T05:26:01.308Z,11.73
2016-09-23T05:26:41.853Z,11.75
2016-09-23T05:27:22.390Z,11.79
2016-09-23T05:28:02.931Z,11.67
2016-09-23T05:28:43.477Z,11.76
2016-09-23T05:29:24.019Z,11.82
2016-09-23T05:30:04.568Z,11.83
2016-09-23T05:30:45.114Z,11.79
2016-09-23T05:31:25.653Z,11.78
2016-09-23T05:32:06.186Z,11.67
2016-09-23T05:32:46.730Z,11.73
2016-09-23T05:33:27.278Z,11.79
2016-09-23T05:34:07.817Z,11.79
2016-09-23T05:34:48.359Z,11.73
2016-09-23T05:35:28.937Z,11.82
2016-09-23T05:36:09.490Z,11.73
2016-09-23T05:36:50.033Z,11.79
2016-09-23T05:37:30.578Z,11.82
2016-09-23T05:38:11.118Z,11.78
2016-09-23T05:38:51.677Z,11.82
2016-09-23T05:39:32.207Z,11.79
2016-09-23T05:40:12.748Z,11.73
2016-09-23T05:40:53.291Z,11.7
2016-09-23T05:41:33.832Z,11.79
2016-09-23T05:42:14.379Z,11.79
2016-09-23T05:42:54.917Z,11.79
2016-09-23T05:43:35.462Z,11.79
2016-09-23T05:44:16.005Z,11.72
2016-09-23T05:44:56.539Z,11.82
2016-09-23T05:45:37.088Z,11.75
2016-09-23T05:46:17.625Z,11.83
2016-09-23T05:46:58.174Z,11.82
2016-09-23T05:47:38.716Z,11.76
2016-09-23T05:48:19.259Z,11.78
2016-09-23T05:48:59.805Z,11.75
2016-09-23T05:49:40.358Z,11.79
2016-09-23T05:50:20.898Z,11.76
2016-09-23T05:51:01.440Z,11.79
2016-09-23T05:51:41.988Z,11.82
2016-09-23T05:52:22.535Z,11.82
2016-09-23T05:53:03.076Z,11.82
2016-09-23T05:53:43.607Z,11.83
2016-09-23T05:54:24.153Z,11.9
2016-09-23T05:55:04.685Z,11.86
2016-09-23T05:55:45.233Z,11.86
2016-09-23T05:56:25.781Z,11.94
2016-09-23T05:57:06.324Z,11.9
2016-09-23T05:57:46.875Z,11.95
2016-09-23T05:58:27.419Z,11.95
2016-09-23T05:59:07.963Z,12.05
2016-09-23T05:59:48.512Z,12.01
2016-09-23T06:00:29.054Z,12.04
2016-09-23T06:01:09.599Z,12.07
2016-09-23T06:01:50.143Z,12.1
2016-09-23T06:02:30.682Z,12.07
2016-09-23T06:03:11.218Z,12.13
2016-09-23T06:03:51.765Z,12.14
2016-09-23T06:04:32.304Z,12.16
2016-09-23T06:05:12.854Z,12.1
2016-09-23T06:05:53.391Z,12.17
2016-09-23T06:06:33.933Z,12.12
2016-09-23T06:07:14.482Z,12.14
2016-09-23T06:07:55.028Z,12.21
2016-09-23T06:08:35.575Z,12.13
2016-09-23T06:09:16.115Z,12.23
2016-09-23T06:09:56.658Z,12.21
2016-09-23T06:10:37.193Z,12.24
2016-09-23T06:11:17.724Z,12.34
2016-09-23T06:11:58.263Z,12.38
2016-09-23T06:12:38.804Z,12.35
2016-09-23T06:13:19.351Z,12.39
2016-09-23T06:13:59.893Z,12.34
2016-09-23T06:14:40.434Z,12.46
2016-09-23T06:15:20.981Z,12.45
2016-09-23T06:16:01.524Z,12.42
2016-09-23T06:16:42.069Z,12.52
2016-09-23T06:17:22.615Z,12.47
2016-09-23T06:18:03.162Z,12.47
2016-09-23T06:18:43.702Z,12.56
2016-09-23T06:19:24.235Z,12.52
2016-09-23T06:20:04.793Z,12.56
2016-09-23T06:20:45.331Z,12.54
2016-09-23T06:21:25.876Z,12.64
2016-09-23T06:22:06.421Z,12.62
2016-09-23T06:22:46.960Z,12.59
2016-09-23T06:23:27.511Z,12.7
2016-09-23T06:24:08.053Z,12.7
2016-09-23T06:24:48.594Z,12.7
2016-09-23T06:25:29.134Z,12.68
2016-09-23T06:26:09.682Z,12.68
2016-09-23T06:26:50.228Z,12.7
2016-09-23T06:27:30.781Z,12.68
2016-09-23T06:28:11.321Z,12.82
2016-09-23T06:28:51.873Z,12.82
2016-09-23T06:29:32.437Z,12.83
2016-09-23T06:31:26.505Z,12.86
2016-09-23T06:32:07.051Z,12.86
2016-09-23T06:32:47.593Z,12.86
2016-09-23T06:33:28.132Z,12.86
2016-09-23T06:34:08.667Z,12.86
2016-09-23T06:34:49.210Z,12.87
2016-09-23T06:35:29.752Z,12.85
2016-09-23T06:36:10.297Z,12.83
2016-09-23T06:36:50.846Z,12.85
2016-09-23T06:37:31.383Z,12.92
2016-09-23T06:38:11.935Z,12.86
2016-09-23T06:38:52.482Z,12.96
2016-09-23T06:39:33.031Z,12.87
2016-09-23T06:40:13.572Z,12.96
2016-09-23T06:40:54.115Z,12.92
2016-09-23T06:41:34.665Z,12.93
2016-09-23T06:42:15.199Z,12.96
2016-09-23T06:42:55.744Z,12.97
2016-09-23T06:43:36.278Z,12.97
2016-09-23T06:44:16.823Z,13.1
2016-09-23T06:44:57.383Z,13.03
2016-09-23T06:45:37.934Z,13.01
2016-09-23T06:46:18.473Z,13.05
2016-09-23T06:46:59.007Z,13.04
2016-09-23T06:47:39.557Z,13
2016-09-23T06:48:20.095Z,13
2016-09-23T06:49:00.644Z,13.12
2016-09-23T06:49:41.189Z,13.11
2016-09-23T06:50:21.727Z,13.12
2016-09-23T06:51:02.262Z,13.14
2016-09-23T06:51:42.804Z,13.17
2016-09-23T06:52:23.336Z,13.14
2016-09-23T06:53:03.881Z,13.17
2016-09-23T06:53:44.426Z,13.19
2016-09-23T06:54:24.966Z,13.22
2016-09-23T06:55:05.510Z,13.25
2016-09-23T06:55:46.052Z,13.23
2016-09-23T06:56:26.597Z,13.23
2016-09-23T06:57:07.140Z,13.28
2016-09-23T06:57:47.680Z,13.26
2016-09-23T06:58:28.228Z,13.28
2016-09-23T06:59:08.762Z,13.29
2016-09-23T06:59:49.306Z,13.22
2016-09-23T07:00:29.843Z,13.3
2016-09-23T07:01:10.383Z,13.42
2016-09-23T07:01:50.924Z,13.33
2016-09-23T07:02:31.471Z,13.46
2016-09-23T07:03:12.020Z,13.44
2016-09-23T07:03:52.555Z,13.46
2016-09-23T07:04:33.099Z,13.42
2016-09-23T07:05:13.639Z,13.41
2016-09-23T07:05:54.182Z,13.44
2016-09-23T07:06:34.728Z,13.54
2016-09-23T07:07:15.270Z,13.54
2016-09-23T07:07:55.813Z,13.55
2016-09-23T07:08:36.351Z,13.59
2016-09-23T07:09:16.889Z,13.62
2016-09-23T07:09:57.428Z,13.55
2016-09-23T07:10:37.974Z,13.64
2016-09-23T07:11:18.517Z,13.66
2016-09-23T07:11:59.059Z,13.64
2016-09-23T07:12:39.601Z,13.75
2016-09-23T07:13:20.144Z,13.69
2016-09-23T07:14:00.690Z,13.77
2016-09-23T07:14:41.226Z,13.81
2016-09-23T07:15:21.761Z,13.85
2016-09-23T07:16:02.308Z,13.85
2016-09-23T07:16:42.852Z,13.89
2016-09-23T07:17:23.388Z,13.84
2016-09-23T07:18:03.935Z,13.88
2016-09-23T07:18:44.488Z,13.91
2016-09-23T07:19:25.024Z,13.84
2016-09-23T07:20:05.579Z,13.97
2016-09-23T07:20:46.126Z,14.02
2016-09-23T07:21:26.680Z,14.06
2016-09-23T07:22:07.236Z,14.02
2016-09-23T07:22:47.777Z,14
2016-09-23T07:23:28.325Z,14.06
2016-09-23T07:24:08.868Z,14.06
2016-09-23T07:24:49.411Z,14.07
2016-09-23T07:25:29.956Z,14.15
2016-09-23T07:26:10.496Z,14.14
2016-09-23T07:26:51.039Z,14.25
2016-09-23T07:27:31.573Z,14.12
2016-09-23T07:28:12.115Z,14.18
2016-09-23T07:28:52.656Z,14.25
2016-09-23T07:29:33.199Z,14.22
2016-09-23T07:30:13.734Z,14.22
2016-09-23T07:30:54.278Z,14.27
2016-09-23T07:31:34.821Z,14.22
2016-09-23T07:32:15.364Z,14.28
2016-09-23T07:32:55.907Z,14.28
2016-09-23T07:33:36.450Z,14.32
2016-09-23T07:34:16.991Z,14.35
2016-09-23T07:34:57.528Z,14.43
2016-09-23T07:35:38.069Z,14.42
2016-09-23T07:36:18.607Z,14.45
2016-09-23T07:36:59.158Z,14.43
2016-09-23T07:37:39.700Z,14.54
2016-09-23T07:38:20.243Z,14.51
2016-09-23T07:39:00.791Z,14.62
2016-09-23T07:39:41.336Z,14.62
2016-09-23T07:40:21.889Z,14.6
2016-09-23T07:41:02.431Z,14.68
2016-09-23T07:41:42.979Z,14.75
2016-09-23T07:42:23.522Z,14.77
2016-09-23T07:43:04.066Z,14.73
2016-09-23T07:43:44.609Z,14.77
2016-09-23T07:44:25.151Z,14.73
2016-09-23T07:45:05.687Z,14.8
2016-09-23T07:45:46.222Z,14.83
2016-09-23T07:46:26.763Z,14.77
2016-09-23T07:47:07.321Z,14.84
2016-09-23T07:47:47.853Z,14.88
2016-09-23T07:48:28.405Z,14.88
2016-09-23T07:49:08.955Z,14.8
2016-09-23T07:49:49.500Z,14.92
2016-09-23T07:50:30.052Z,14.84
2016-09-23T07:51:10.598Z,14.94
2016-09-23T07:51:51.142Z,14.84
2016-09-23T07:52:31.687Z,14.94
2016-09-23T07:53:12.234Z,14.94
2016-09-23T07:53:52.778Z,14.91
2016-09-23T07:54:33.321Z,15.01
2016-09-23T07:55:13.865Z,15.09
2016-09-23T07:55:54.398Z,15.09
2016-09-23T07:56:34.946Z,15.07
2016-09-23T07:57:15.490Z,15.11
2016-09-23T07:57:56.045Z,15.16
2016-09-23T07:58:36.578Z,15.17
2016-09-23T07:59:17.128Z,15.21
2016-09-23T07:59:57.678Z,15.19
2016-09-23T08:00:38.223Z,15.23
2016-09-23T08:01:18.768Z,15.27
2016-09-23T08:01:59.315Z,15.28
2016-09-23T08:02:39.866Z,15.27
2016-09-23T08:03:20.421Z,15.38
2016-09-23T08:04:00.972Z,15.49
2016-09-23T08:04:41.520Z,15.44
2016-09-23T08:05:22.073Z,15.49
2016-09-23T08:06:02.621Z,15.54
2016-09-23T08:06:43.159Z,15.6
2016-09-23T08:07:23.702Z,15.57
2016-09-23T08:08:04.252Z,15.57
2016-09-23T08:08:44.796Z,15.68
2016-09-23T08:09:25.336Z,15.71
2016-09-23T08:10:05.880Z,15.64
2016-09-23T08:10:46.418Z,15.67
2016-09-23T08:11:26.962Z,15.8
2016-09-23T08:12:07.510Z,15.8
2016-09-23T08:12:48.044Z,15.78
2016-09-23T08:13:28.597Z,15.76
2016-09-23T08:14:09.145Z,15.84
2016-09-23T08:14:49.686Z,15.8
2016-09-23T08:15:30.233Z,15.8
2016-09-23T08:16:10.776Z,15.83
2016-09-23T08:16:51.327Z,15.87
2016-09-23T08:17:31.871Z,15.78
2016-09-23T08:18:12.415Z,15.83
2016-09-23T08:18:52.960Z,15.8
2016-09-23T08:19:33.510Z,15.8
2016-09-23T08:20:14.063Z,15.83
2016-09-23T08:20:54.607Z,15.76
2016-09-23T08:21:35.157Z,15.78
2016-09-23T08:22:15.708Z,15.83
2016-09-23T08:22:56.253Z,15.82
2016-09-23T08:23:36.798Z,15.8
2016-09-23T08:24:17.343Z,15.86
2016-09-23T08:24:57.879Z,15.92
2016-09-23T08:25:38.423Z,15.92
2016-09-23T08:26:18.970Z,15.82
2016-09-23T08:26:59.509Z,15.9
2016-09-23T08:27:40.059Z,15.93
2016-09-23T08:28:20.603Z,15.84
2016-09-23T08:29:01.148Z,15.97
2016-09-23T08:29:41.699Z,15.97
2016-09-23T08:30:22.251Z,16.01
2016-09-23T08:31:02.798Z,16.02
2016-09-23T08:31:43.347Z,16.01
2016-09-23T08:32:23.887Z,16.05
2016-09-23T08:33:04.429Z,16.05
2016-09-23T08:33:44.969Z,16.17
2016-09-23T08:34:25.515Z,16.21
2016-09-23T08:35:06.060Z,16.23
2016-09-23T08:35:46.605Z,16.3
2016-09-23T08:36:27.140Z,16.28
2016-09-23T08:37:07.684Z,16.41
2016-09-23T08:37:48.224Z,16.45
2016-09-23T08:38:28.769Z,16.57
2016-09-23T08:39:09.310Z,16.66
2016-09-23T08:39:49.858Z,16.86
2016-09-23T08:40:30.414Z,16.91
2016-09-23T08:41:10.962Z,17.01
2016-09-23T08:41:51.511Z,17.07
2016-09-23T08:42:32.060Z,17.18
2016-09-23T08:43:12.611Z,17.26
2016-09-23T08:43:53.166Z,17.26
2016-09-23T08:44:33.716Z,17.26
2016-09-23T08:45:14.265Z,17.34